Austin Straubel International Airport Green Bay US
ICAO: KGRB
IATA: GRB
Category: Large
Scheduled Services: Yes

Elevation: 695 ft
TransAlt. 18000 ft.

Airport Communications:
GREEN BAY APP:119.4
ATIS:124.1
CLNC DEL:121.75
CTAF:118.7
GREEN BAY DEP:126.55
GND:121.9
GREEN BAY RDO:122.2
GREEN BAY TWR:118.7
UNICOM:122.95

KGRB Zoom In..

Runways:

(A) RW 06 length 7699 ft width 150 ft
ILS 109.50 / hdg 62

(B) RW 18 length 8699 ft width 150 ft
---- / hdg 182

(C) RW 24 length 7699 ft width 150 ft
---- / hdg 242

(D) RW 36 length 8699 ft width 150 ft
ILS 109.90 / hdg 2

Location; KGRB
Day. 19 / Time. 03.53 Zulu
* Altimeter: 30.05
* Temperature: 18° c. 64.4°f.
* Wind from: 180° Speed 06 kn.
Dewpoint: 14° c.
Visibility: 10 Statute Miles.
Clouds: Clear (automated report).

KGRB 190353Z 18006KT 10SM CLR 18/14 A3005 RMK AO2 SLP174 T01780139


Wind From 180°
Speed 06 kn.

 
 
jpsmedia.com for Web Design worldairports.se 2018   terms of use